createdAt,value
2018-10-01T00:01:55.188Z,10.00
2018-10-01T00:04:24.338Z,8.90
2018-10-01T00:06:53.679Z,9.70
2018-10-01T00:09:23.037Z,9.27
2018-10-01T00:11:52.409Z,10.60
2018-10-01T00:14:21.643Z,9.07
2018-10-01T00:16:50.888Z,10.47
2018-10-01T00:19:25.546Z,10.10
2018-10-01T00:22:00.165Z,9.60
2018-10-01T00:24:29.265Z,9.97
2018-10-01T00:26:58.243Z,10.30
2018-10-01T00:29:27.246Z,8.80
2018-10-01T00:31:56.255Z,9.03
2018-10-01T00:34:25.408Z,8.23
2018-10-01T00:36:54.858Z,10.10
2018-10-01T00:39:24.223Z,9.00
2018-10-01T00:41:53.911Z,8.57
2018-10-01T00:44:23.887Z,10.50
2018-10-01T00:46:53.230Z,10.33
2018-10-01T00:49:22.388Z,9.60
2018-10-01T00:51:51.408Z,9.67
2018-10-01T00:54:20.635Z,9.80
2018-10-01T00:56:49.651Z,9.47
2018-10-01T00:59:18.761Z,10.10
2018-10-01T01:01:47.974Z,10.20
2018-10-01T01:04:17.000Z,8.67
2018-10-01T01:06:46.198Z,8.73
2018-10-01T01:09:15.635Z,8.40
2018-10-01T01:11:45.019Z,8.50
2018-10-01T01:14:14.407Z,8.30
2018-10-01T01:16:44.024Z,8.35
2018-10-01T01:19:13.459Z,8.00
2018-10-01T01:21:42.686Z,9.15
2018-10-01T01:24:11.716Z,7.67
2018-10-01T01:26:40.754Z,7.50
2018-10-01T01:29:09.754Z,8.40
2018-10-01T01:31:39.014Z,8.60
2018-10-01T01:34:08.072Z,8.00
2018-10-01T01:36:37.102Z,7.10
2018-10-01T01:39:09.415Z,7.93
2018-10-01T01:41:39.142Z,8.20
2018-10-01T01:44:09.309Z,9.13
2018-10-01T01:46:38.488Z,7.90
2018-10-01T01:56:31.953Z,12.90
2018-10-01T01:59:00.934Z,11.10
2018-10-01T02:01:29.969Z,11.40
2018-10-01T02:03:58.942Z,7.37
2018-10-01T02:06:27.970Z,6.75
2018-10-01T02:11:25.097Z,8.00
2018-10-01T02:16:22.780Z,6.60
2018-10-01T02:21:20.012Z,7.40
2018-10-01T02:23:49.923Z,7.30
2018-10-01T02:28:47.158Z,7.70
2018-10-01T02:31:16.164Z,6.40
2018-10-01T02:36:13.371Z,7.33
2018-10-01T04:10:22.090Z,6.30
2018-10-01T08:30:39.830Z,1.70
2018-10-01T08:33:15.616Z,1.70
2018-10-01T08:38:13.702Z,1.40
2018-10-01T08:40:42.827Z,1.60
2018-10-01T09:35:30.617Z,1.80
2018-10-01T09:47:54.577Z,1.13
2018-10-01T09:52:52.030Z,1.40
2018-10-01T09:55:21.076Z,1.97
2018-10-01T09:57:50.131Z,1.63
2018-10-01T10:00:24.596Z,1.40
2018-10-01T10:02:53.981Z,1.60
2018-10-01T10:07:51.623Z,1.40
2018-10-01T10:10:21.182Z,1.37
2018-10-01T10:12:50.352Z,1.30
2018-10-01T10:15:19.528Z,1.87
2018-10-01T10:17:48.907Z,1.30
2018-10-01T10:20:17.984Z,1.30
2018-10-01T10:22:46.951Z,1.20
2018-10-01T10:25:16.113Z,1.47
2018-10-01T10:32:41.898Z,1.77
2018-10-01T10:35:11.182Z,1.40
2018-10-01T10:37:40.933Z,0.90
2018-10-01T10:40:10.132Z,1.50
2018-10-01T10:42:39.999Z,1.43
2018-10-01T10:45:09.639Z,2.37
2018-10-01T10:47:39.037Z,1.57
2018-10-01T11:17:24.536Z,1.20
2018-10-01T11:19:53.873Z,2.20
2018-10-01T11:22:23.135Z,1.73
2018-10-01T11:27:20.712Z,1.20
2018-10-01T11:29:49.914Z,1.60
2018-10-01T11:47:09.866Z,1.87
2018-10-01T11:49:39.300Z,1.93
2018-10-01T11:52:08.640Z,1.60
2018-10-01T11:54:37.743Z,1.70
2018-10-01T11:57:07.020Z,1.00
2018-10-01T11:59:36.075Z,1.50
2018-10-01T12:02:05.164Z,1.60
2018-10-01T12:04:34.236Z,1.67
2018-10-01T12:07:03.497Z,1.90
2018-10-01T12:09:32.600Z,1.70
2018-10-01T12:12:01.598Z,1.57
2018-10-01T12:14:31.038Z,1.37
2018-10-01T12:17:00.796Z,1.30
2018-10-01T12:19:30.526Z,1.33
2018-10-01T12:22:00.333Z,1.30
2018-10-01T16:57:09.892Z,2.00
2018-10-01T16:59:39.093Z,1.40
2018-10-01T17:02:08.144Z,2.30
2018-10-01T17:07:05.953Z,1.80
2018-10-01T17:12:03.247Z,2.10
2018-10-01T17:14:32.446Z,2.00
2018-10-01T17:17:01.657Z,2.57
2018-10-01T17:19:30.795Z,2.40
2018-10-01T17:21:59.957Z,2.00
2018-10-01T17:24:29.087Z,1.93
2018-10-01T17:26:58.354Z,1.60
2018-10-01T17:29:27.870Z,1.60
2018-10-01T17:39:22.470Z,3.30
2018-10-01T17:41:52.050Z,2.30
2018-10-01T17:44:21.707Z,2.55
2018-10-01T17:46:51.561Z,2.30
2018-10-01T17:49:20.861Z,2.20
2018-10-01T17:56:47.630Z,4.17
2018-10-01T17:59:16.914Z,3.00
2018-10-01T18:01:45.944Z,2.33
2018-10-01T18:04:15.321Z,2.25
2018-10-01T18:06:44.397Z,2.07
2018-10-01T18:09:13.492Z,2.07
2018-10-01T18:11:42.727Z,2.30
2018-10-01T18:14:11.743Z,2.20
2018-10-01T18:16:41.019Z,3.40
2018-10-01T18:21:38.814Z,2.60
2018-10-01T18:31:32.903Z,2.25
2018-10-01T18:34:01.971Z,2.00
2018-10-01T18:36:31.042Z,1.90
2018-10-01T18:53:55.581Z,3.10
2018-10-01T18:58:53.463Z,2.90
2018-10-01T19:01:22.658Z,3.53
2018-10-01T19:03:52.077Z,4.23
2018-10-01T19:06:21.181Z,3.23
2018-10-01T19:08:50.236Z,3.70
2018-10-01T19:11:19.390Z,2.83
2018-10-01T19:13:48.490Z,2.53
2018-10-01T19:16:18.078Z,3.57
2018-10-01T19:18:47.804Z,3.63
2018-10-01T19:21:17.559Z,3.80
2018-10-01T19:23:47.213Z,5.00
2018-10-01T19:26:16.671Z,3.20
2018-10-01T19:28:46.190Z,3.00
2018-10-01T19:31:15.337Z,3.30
2018-10-01T19:33:44.405Z,2.67
2018-10-01T19:36:13.517Z,2.80
2018-10-01T19:38:46.405Z,2.97
2018-10-01T19:41:15.668Z,2.60
2018-10-01T19:43:44.893Z,2.10
2018-10-01T19:56:08.975Z,1.80
2018-10-01T19:58:38.071Z,3.07
2018-10-01T20:30:50.927Z,2.30
2018-10-01T20:33:20.345Z,3.20
2018-10-01T20:35:50.105Z,4.00
2018-10-01T20:38:19.284Z,4.53
2018-10-01T20:43:16.718Z,6.30
2018-10-01T20:45:46.046Z,5.77
